Time;durP1;ratioP1;P1;durP2;ratioP2;P2;SDS_P1;SDS_P2;PMS_P1;PMS_P2;Temp;Humidity;BMP_temperature;BMP_pressure;BME280_temperature;BME280_humidity;BME280_pressure;Samples;Min_cycle;Max_cycle;Signal;HPM_P1;HPM_P2
2021/04/05 00:01:33;;;;;;;9.50;5.70;;;16.00;34.90;;;;;;5022951;28;20193;-41
2021/04/05 00:03:59;;;;;;;10.27;6.43;;;16.10;34.50;;;;;;5021271;28;21138;-41
2021/04/05 00:06:24;;;;;;;6.90;6.13;;;16.20;33.90;;;;;;5020595;28;20202;-41
2021/04/05 00:08:50;;;;;;;9.00;5.57;;;16.30;34.00;;;;;;5022030;28;20467;-41
2021/04/05 00:11:17;;;;;;;7.90;5.70;;;16.30;33.10;;;;;;5021673;28;20189;-40
2021/04/05 00:13:43;;;;;;;8.60;6.03;;;16.40;33.50;;;;;;5019490;28;21206;-41
2021/04/05 00:16:11;;;;;;;8.60;5.97;;;16.40;32.40;;;;;;5020796;28;20487;-41
2021/04/05 00:18:37;;;;;;;6.87;4.90;;;16.30;32.50;;;;;;5022938;28;20436;-41
2021/04/05 00:21:07;;;;;;;7.20;6.10;;;16.30;32.00;;;;;;5024469;28;20533;-41
2021/04/05 00:23:34;;;;;;;8.83;5.00;;;16.30;33.70;;;;;;5025525;28;20339;-41
2021/04/05 00:25:59;;;;;;;6.87;5.70;;;16.40;32.40;;;;;;5023071;28;20843;-41
2021/04/05 00:28:25;;;;;;;7.60;6.30;;;16.50;32.50;;;;;;5025068;28;20497;-41
2021/04/05 00:30:53;;;;;;;5.33;4.83;;;16.50;32.60;;;;;;5023959;28;20194;-41
2021/04/05 00:33:20;;;;;;;6.33;5.70;;;16.50;33.20;;;;;;5025653;28;20276;-41
2021/04/05 00:35:46;;;;;;;6.77;4.77;;;16.60;32.70;;;;;;5021902;28;20443;-41
2021/04/05 00:38:12;;;;;;;5.97;5.37;;;16.50;32.20;;;;;;5023261;28;20468;-41
2021/04/05 00:40:39;;;;;;;6.23;5.40;;;16.50;33.40;;;;;;5023074;28;20535;-41
2021/04/05 00:43:06;;;;;;;6.80;4.60;;;16.50;33.10;;;;;;5025669;28;20454;-41
2021/04/05 00:45:33;;;;;;;8.47;5.67;;;16.60;32.70;;;;;;5024134;28;20447;-41
2021/04/05 00:47:58;;;;;;;8.57;5.77;;;16.70;31.70;;;;;;5023280;28;20447;-41
2021/04/05 00:50:36;;;;;;;8.70;5.90;;;16.60;31.20;;;;;;5023424;28;20494;-41
2021/04/05 00:53:07;;;;;;;8.47;5.10;;;16.50;32.00;;;;;;5025694;28;20619;-41
2021/04/05 00:55:33;;;;;;;6.53;5.47;;;16.40;32.70;;;;;;5023405;28;20506;-40
2021/04/05 00:58:00;;;;;;;8.33;6.00;;;16.40;32.40;;;;;;5024785;28;20477;-41
2021/04/05 01:00:38;;;;;;;9.53;6.50;;;16.30;32.30;;;;;;5025666;28;20967;-40
2021/04/05 01:03:05;;;;;;;10.40;6.10;;;16.30;32.60;;;;;;5023499;28;20453;-40
2021/04/05 01:05:31;;;;;;;11.83;6.23;;;16.20;32.60;;;;;;5025296;28;20453;-41
2021/04/05 01:07:57;;;;;;;8.30;5.90;;;16.20;32.70;;;;;;5020840;28;20435;-41
2021/04/05 01:10:24;;;;;;;9.87;6.20;;;16.20;33.40;;;;;;5023934;28;20502;-40
2021/04/05 01:12:49;;;;;;;8.53;5.33;;;16.20;32.90;;;;;;5023212;28;20202;-41
2021/04/05 01:15:16;;;;;;;8.33;6.20;;;16.10;32.80;;;;;;5024682;28;20466;-40
2021/04/05 01:17:42;;;;;;;7.17;5.67;;;16.10;33.20;;;;;;5025448;28;20189;-41
2021/04/05 01:20:11;;;;;;;8.10;6.07;;;16.10;33.70;;;;;;5022727;28;20511;-41
2021/04/05 01:22:37;;;;;;;6.27;5.10;;;16.10;33.60;;;;;;5022694;28;20440;-41
2021/04/05 01:25:11;;;;;;;5.50;4.93;;;16.00;33.80;;;;;;5022902;28;20522;-41
2021/04/05 01:27:37;;;;;;;7.80;5.47;;;15.90;33.90;;;;;;5023783;28;20575;-40
2021/04/05 01:30:30;;;;;;;8.37;5.20;;;15.70;34.30;;;;;;5024831;28;20522;-41
2021/04/05 01:33:08;;;;;;;7.80;5.90;;;15.80;33.70;;;;;;5021422;28;20551;-41
2021/04/05 01:35:41;;;;;;;6.30;5.20;;;15.70;32.70;;;;;;5021142;28;20451;-41
2021/04/05 01:38:08;;;;;;;12.00;5.60;;;15.70;33.20;;;;;;5021689;28;20905;-41
2021/04/05 01:40:38;;;;;;;6.30;5.70;;;15.70;33.60;;;;;;5023531;28;20444;-40
2021/04/05 01:43:05;;;;;;;7.63;5.70;;;15.70;33.40;;;;;;5021014;28;20432;-41
2021/04/05 01:45:31;;;;;;;5.97;5.10;;;15.60;34.00;;;;;;5022414;28;21498;-40
2021/04/05 01:47:57;;;;;;;9.27;5.80;;;15.60;34.20;;;;;;5022361;28;20964;-41
2021/04/05 01:50:24;;;;;;;6.40;5.80;;;15.60;33.90;;;;;;5024810;28;20483;-41
2021/04/05 01:52:49;;;;;;;7.30;6.00;;;15.50;32.80;;;;;;5020625;28;20216;-40
2021/04/05 01:55:15;;;;;;;7.53;6.47;;;15.30;32.90;;;;;;5022858;28;20439;-41
2021/04/05 01:57:42;;;;;;;9.23;5.60;;;15.20;33.90;;;;;;5022586;28;20196;-41
2021/04/05 02:00:12;;;;;;;9.27;5.83;;;15.10;34.80;;;;;;5023423;28;20263;-41
2021/04/05 02:02:37;;;;;;;6.27;4.60;;;15.10;35.30;;;;;;5021815;28;20498;-40
2021/04/05 02:05:08;;;;;;;8.13;5.43;;;15.20;35.10;;;;;;5024032;28;20447;-41
2021/04/05 02:07:38;;;;;;;7.23;5.77;;;15.10;35.20;;;;;;5025953;28;20215;-40
2021/04/05 02:10:20;;;;;;;7.03;4.97;;;15.20;35.20;;;;;;5021792;28;20498;-41
2021/04/05 02:15:18;;;;;;;6.40;4.73;;;15.30;34.60;;;;;;5025425;28;20457;-40
2021/04/05 02:17:45;;;;;;;6.33;4.67;;;15.30;34.50;;;;;;5021182;28;20197;-40
2021/04/05 02:20:13;;;;;;;6.93;4.97;;;15.20;35.20;;;;;;5024916;28;20506;-40
2021/04/05 02:22:41;;;;;;;7.40;5.30;;;15.20;34.50;;;;;;5021886;28;20530;-41
2021/04/05 02:25:10;;;;;;;8.17;5.80;;;15.10;35.20;;;;;;5020440;28;20970;-40
2021/04/05 02:27:36;;;;;;;7.47;4.50;;;15.10;35.30;;;;;;5021401;28;20454;-41
2021/04/05 02:30:05;;;;;;;8.07;5.00;;;15.00;35.10;;;;;;5021134;28;20488;-40
2021/04/05 02:32:31;;;;;;;6.70;5.07;;;15.10;35.60;;;;;;5020980;28;20193;-40
2021/04/05 02:34:57;;;;;;;4.70;4.20;;;15.20;35.10;;;;;;5020642;28;20444;-41
2021/04/05 02:37:23;;;;;;;8.50;5.30;;;15.30;34.40;;;;;;5020205;28;20475;-40
2021/04/05 02:39:49;;;;;;;7.93;4.90;;;15.30;34.70;;;;;;5022053;28;20696;-40
2021/04/05 02:42:17;;;;;;;8.60;4.67;;;15.30;34.40;;;;;;5025053;28;20635;-41
2021/04/05 02:44:45;;;;;;;6.60;4.80;;;14.90;34.20;;;;;;5021762;28;20189;-40
2021/04/05 02:47:11;;;;;;;8.80;5.30;;;14.60;36.00;;;;;;5018981;28;20462;-40
2021/04/05 02:49:38;;;;;;;7.57;5.70;;;14.80;36.00;;;;;;5020100;28;20904;-41
2021/04/05 02:52:04;;;;;;;6.93;4.80;;;14.90;36.00;;;;;;5026067;28;20444;-40
2021/04/05 02:54:29;;;;;;;8.47;4.63;;;15.10;35.20;;;;;;5022540;28;20436;-40
2021/04/05 02:56:57;;;;;;;5.00;4.50;;;15.20;35.50;;;;;;5019716;28;20478;-41
2021/04/05 02:59:23;;;;;;;7.33;5.40;;;15.30;35.20;;;;;;5021015;28;20229;-41
2021/04/05 03:01:50;;;;;;;9.60;4.70;;;15.30;34.90;;;;;;5019137;28;22073;-41
2021/04/05 03:04:17;;;;;;;6.43;5.03;;;15.20;35.20;;;;;;5022258;28;20506;-41
2021/04/05 03:06:43;;;;;;;9.77;5.67;;;15.30;35.40;;;;;;5020918;28;20849;-40
2021/04/05 03:09:08;;;;;;;5.03;4.53;;;15.40;35.40;;;;;;5025950;28;20531;-41
2021/04/05 03:11:36;;;;;;;8.23;6.53;;;15.40;35.30;;;;;;5018348;28;20324;-41
2021/04/05 03:14:13;;;;;;;4.83;4.00;;;15.50;35.00;;;;;;5025385;28;20201;-41
2021/04/05 03:16:40;;;;;;;8.60;5.03;;;15.50;34.90;;;;;;5018889;28;20443;-41
2021/04/05 03:19:08;;;;;;;8.63;4.80;;;15.60;35.00;;;;;;5021185;28;20486;-41
2021/04/05 03:21:34;;;;;;;7.33;5.07;;;15.50;35.10;;;;;;5021057;28;20444;-40
2021/04/05 03:24:01;;;;;;;8.33;5.20;;;15.40;35.00;;;;;;5021445;28;21310;-41
2021/04/05 03:26:27;;;;;;;5.77;4.30;;;15.30;35.20;;;;;;5018702;28;20189;-41
2021/04/05 03:28:53;;;;;;;8.93;6.00;;;15.20;35.30;;;;;;5024571;28;20499;-40
2021/04/05 03:31:21;;;;;;;5.80;4.50;;;14.80;35.50;;;;;;5020279;28;20440;-41
2021/04/05 03:34:07;;;;;;;9.23;5.20;;;14.80;35.60;;;;;;5022369;28;20525;-41
2021/04/05 03:36:44;;;;;;;5.30;4.20;;;14.70;36.10;;;;;;5019852;28;20479;-40
2021/04/05 03:39:13;;;;;;;7.33;4.70;;;14.70;36.30;;;;;;5022422;28;20513;-40
2021/04/05 03:42:02;;;;;;;6.60;4.80;;;14.40;36.50;;;;;;5017586;28;20833;-41
2021/04/05 03:44:47;;;;;;;5.27;4.23;;;14.50;36.80;;;;;;5022400;28;20493;-41
2021/04/05 03:47:26;;;;;;;6.67;4.20;;;14.60;36.90;;;;;;5020749;28;20441;-40
2021/04/05 03:50:06;;;;;;;8.87;5.00;;;14.50;36.80;;;;;;5020988;28;20487;-40
2021/04/05 03:52:38;;;;;;;5.37;4.30;;;14.60;36.80;;;;;;5015653;28;20442;-40
2021/04/05 03:55:09;;;;;;;5.77;4.60;;;14.80;36.70;;;;;;5023464;28;20436;-40
2021/04/05 03:57:45;;;;;;;7.23;4.23;;;14.80;36.40;;;;;;5024533;28;21021;-41
2021/04/05 04:00:14;;;;;;;6.93;4.63;;;14.90;35.90;;;;;;5024783;28;20946;-41
2021/04/05 04:02:48;;;;;;;6.10;5.00;;;14.70;36.00;;;;;;5024958;28;20452;-41
2021/04/05 04:11:14;;;;;;;7.67;5.20;;;14.30;36.60;;;;;;4998559;28;20467;-40
2021/04/05 04:13:43;;;;;;;8.20;5.07;;;14.40;37.20;;;;;;5024756;28;20452;-41
2021/04/05 04:16:11;;;;;;;6.03;5.00;;;14.50;37.00;;;;;;5024394;28;20457;-40
2021/04/05 04:18:37;;;;;;;9.80;5.80;;;14.60;36.90;;;;;;5025757;28;20494;-40
2021/04/05 04:21:10;;;;;;;8.60;5.27;;;14.70;36.40;;;;;;5021741;28;20862;-40
2021/04/05 04:23:36;;;;;;;5.43;4.93;;;14.80;36.10;;;;;;5021787;28;20255;-41
2021/04/05 04:26:03;;;;;;;9.10;4.70;;;14.80;36.50;;;;;;5023716;28;20470;-40
2021/04/05 04:28:28;;;;;;;5.60;4.40;;;14.70;36.50;;;;;;5025228;28;20801;-40
2021/04/05 04:30:56;;;;;;;12.33;5.23;;;14.80;36.40;;;;;;5023086;28;20452;-41
2021/04/05 04:33:24;;;;;;;15.30;5.97;;;14.60;36.00;;;;;;5025594;28;20276;-40
2021/04/05 04:35:50;;;;;;;6.53;4.47;;;14.50;37.10;;;;;;5022202;28;20439;-40
2021/04/05 04:38:16;;;;;;;7.03;5.30;;;14.00;36.50;;;;;;5024619;28;20931;-40
2021/04/05 04:40:41;;;;;;;8.27;5.10;;;13.90;37.70;;;;;;5025535;28;20196;-42
2021/04/05 04:43:07;;;;;;;9.67;5.50;;;14.10;37.40;;;;;;5026883;28;20198;-44
2021/04/05 04:45:34;;;;;;;6.33;5.07;;;14.10;36.30;;;;;;5022919;28;20190;-42
2021/04/05 04:48:00;;;;;;;5.90;4.60;;;13.90;36.20;;;;;;5023076;28;20447;-42
2021/04/05 04:50:27;;;;;;;11.43;4.87;;;13.30;37.30;;;;;;5023486;28;20483;-42
2021/04/05 04:52:54;;;;;;;7.83;5.13;;;12.60;38.30;;;;;;5022540;28;20212;-41
2021/04/05 04:55:21;;;;;;;12.17;5.07;;;12.00;39.60;;;;;;5023157;28;20983;-42
2021/04/05 04:57:47;;;;;;;7.40;5.27;;;11.80;40.20;;;;;;5022852;28;20939;-42
2021/04/05 05:00:13;;;;;;;6.30;5.10;;;11.40;41.10;;;;;;5024598;28;20445;-42
2021/04/05 05:02:41;;;;;;;7.20;5.43;;;10.90;42.50;;;;;;5023364;28;20194;-41
2021/04/05 05:05:10;;;;;;;11.17;4.93;;;10.90;42.30;;;;;;5023219;28;20981;-42
2021/04/05 05:07:37;;;;;;;6.00;4.20;;;10.90;42.30;;;;;;5020065;28;20474;-41
2021/04/05 05:10:09;;;;;;;3.60;3.30;;;10.90;42.40;;;;;;5023160;28;21098;-40
2021/04/05 05:12:37;;;;;;;9.17;4.33;;;11.10;48.50;;;;;;5022529;28;20452;-41
2021/04/05 05:15:03;;;;;;;6.57;3.73;;;11.80;45.10;;;;;;5020881;28;20943;-41
2021/04/05 05:17:30;;;;;;;4.33;3.93;;;12.40;41.90;;;;;;5023049;28;20440;-41
2021/04/05 05:19:56;;;;;;;8.30;4.60;;;13.10;40.10;;;;;;5025067;28;20801;-41
2021/04/05 05:22:23;;;;;;;5.93;5.17;;;13.50;38.60;;;;;;5022244;28;20436;-41
2021/04/05 05:24:52;;;;;;;5.20;3.57;;;13.80;37.50;;;;;;5021760;28;20255;-41
2021/04/05 05:27:20;;;;;;;8.67;4.20;;;14.00;37.10;;;;;;5021753;28;20444;-42
2021/04/05 05:29:46;;;;;;;6.20;4.50;;;14.30;36.80;;;;;;5022032;28;20846;-41
2021/04/05 05:32:12;;;;;;;6.20;4.47;;;14.50;36.10;;;;;;5021377;28;20448;-41
2021/04/05 05:34:39;;;;;;;11.20;4.50;;;14.80;35.60;;;;;;5023026;28;20452;-41
2021/04/05 05:37:04;;;;;;;10.77;5.10;;;14.90;35.10;;;;;;5029613;28;20323;-41
2021/04/05 05:39:30;;;;;;;7.00;4.90;;;15.00;34.80;;;;;;5030830;28;20551;-41
2021/04/05 05:42:08;;;;;;;5.70;4.47;;;15.00;34.60;;;;;;5030879;28;20197;-41
2021/04/05 05:44:42;;;;;;;6.40;4.33;;;15.00;34.60;;;;;;5030189;28;20220;-41
2021/04/05 05:47:30;;;;;;;6.20;3.73;;;14.60;34.80;;;;;;5030337;28;20450;-41
2021/04/05 05:50:31;;;;;;;7.40;4.27;;;14.70;35.10;;;;;;5031460;28;20502;-41
2021/04/05 05:53:24;;;;;;;5.50;3.93;;;14.90;34.90;;;;;;4998941;28;20463;-41
2021/04/05 05:56:32;;;;;;;8.13;3.60;;;14.90;34.70;;;;;;5030975;28;20517;-41
2021/04/05 05:59:01;;;;;;;3.90;3.50;;;15.00;34.60;;;;;;5029198;28;20440;-41
2021/04/05 06:01:36;;;;;;;5.83;4.10;;;15.10;34.40;;;;;;5030009;28;20463;-41
2021/04/05 06:04:37;;;;;;;6.30;4.50;;;15.20;34.30;;;;;;5027149;28;21673;-41
2021/04/05 06:07:26;;;;;;;8.30;4.40;;;15.20;34.30;;;;;;5027343;28;20479;-42
2021/04/05 06:10:04;;;;;;;10.47;6.70;;;15.30;34.20;;;;;;5029439;28;20486;-41
2021/04/05 06:12:58;;;;;;;10.83;6.80;;;15.30;34.10;;;;;;5019150;28;20439;-41
2021/04/05 06:15:29;;;;;;;10.50;6.30;;;15.40;34.10;;;;;;5030933;28;20520;-41
2021/04/05 06:18:20;;;;;;;7.07;4.83;;;15.60;33.80;;;;;;5024562;28;20868;-41
2021/04/05 06:20:54;;;;;;;7.40;4.90;;;15.60;33.70;;;;;;5029801;28;20444;-41
2021/04/05 06:23:42;;;;;;;5.93;4.20;;;15.70;33.60;;;;;;5028425;28;20891;-42
2021/04/05 06:26:14;;;;;;;6.27;4.60;;;15.80;33.40;;;;;;5025351;28;20502;-41
2021/04/05 06:28:49;;;;;;;5.33;4.20;;;15.80;33.20;;;;;;5024369;28;20444;-41
2021/04/05 06:31:37;;;;;;;5.57;4.70;;;15.40;33.60;;;;;;5029997;28;20837;-41
2021/04/05 06:34:15;;;;;;;8.23;4.50;;;15.40;34.10;;;;;;5021491;28;20476;-41
2021/04/05 06:36:54;;;;;;;5.67;4.93;;;15.60;34.20;;;;;;5030395;28;20471;-41
2021/04/05 06:39:28;;;;;;;7.83;5.10;;;15.60;34.10;;;;;;5028401;28;20891;-41
2021/04/05 06:42:08;;;;;;;6.70;4.30;;;15.60;34.10;;;;;;5025534;28;20489;-41
2021/04/05 06:45:13;;;;;;;6.50;4.30;;;15.70;33.90;;;;;;5029246;28;20477;-41
2021/04/05 06:48:03;;;;;;;6.93;3.67;;;15.80;33.80;;;;;;5024372;28;20514;-41
2021/04/05 06:50:42;;;;;;;7.60;4.30;;;15.80;33.50;;;;;;5024624;28;20484;-41
2021/04/05 06:53:20;;;;;;;7.63;3.60;;;15.80;33.40;;;;;;5027617;28;20530;-41
2021/04/05 06:55:56;;;;;;;6.70;4.07;;;15.50;33.90;;;;;;5027777;28;20554;-41
2021/04/05 06:58:24;;;;;;;9.40;4.70;;;15.20;34.20;;;;;;5030603;28;20443;-41
2021/04/05 07:00:59;;;;;;;7.97;4.30;;;15.20;34.30;;;;;;5030021;28;20448;-42
2021/04/05 07:04:02;;;;;;;13.63;3.70;;;15.40;34.40;;;;;;5018079;28;20444;-41
2021/04/05 07:07:05;;;;;;;7.80;4.00;;;15.20;34.30;;;;;;5018052;28;20468;-41
2021/04/05 07:09:49;;;;;;;5.17;3.60;;;15.20;34.50;;;;;;5030094;28;20487;-41
2021/04/05 07:12:41;;;;;;;6.40;4.07;;;15.20;34.40;;;;;;5030613;28;20428;-41
2021/04/05 07:15:16;;;;;;;6.73;3.83;;;15.10;34.50;;;;;;5023288;28;20495;-41
2021/04/05 07:18:19;;;;;;;7.87;3.90;;;15.10;34.50;;;;;;5018345;28;20443;-41
2021/04/05 07:21:01;;;;;;;9.13;3.93;;;14.90;34.60;;;;;;5012754;28;20433;-41
2021/04/05 07:23:57;;;;;;;8.93;5.00;;;14.70;35.30;;;;;;5010921;28;20437;-41
2021/04/05 07:26:53;;;;;;;5.77;3.50;;;14.50;35.60;;;;;;5028725;28;20489;-41
2021/04/05 07:29:44;;;;;;;7.40;4.17;;;14.20;36.00;;;;;;5030066;28;21002;-41
2021/04/05 07:32:22;;;;;;;6.00;5.33;;;14.10;36.30;;;;;;5024317;28;20440;-41
2021/04/05 07:35:08;;;;;;;10.23;4.50;;;14.10;36.60;;;;;;5019676;28;20532;-41
2021/04/05 07:37:34;;;;;;;5.60;4.10;;;14.30;36.50;;;;;;5019362;28;20559;-41
2021/04/05 07:40:24;;;;;;;5.20;4.00;;;14.50;36.00;;;;;;5019202;28;20531;-41
2021/04/05 07:42:58;;;;;;;6.63;3.90;;;14.60;35.90;;;;;;5030044;28;20227;-41
2021/04/05 07:45:36;;;;;;;11.73;4.00;;;14.90;35.60;;;;;;5023725;28;20979;-41
2021/04/05 07:48:30;;;;;;;7.60;3.93;;;15.20;35.10;;;;;;5021215;28;20497;-41
2021/04/05 07:51:01;;;;;;;5.07;3.40;;;15.50;34.80;;;;;;5028640;28;21023;-41
2021/04/05 07:53:35;;;;;;;5.60;3.50;;;15.50;34.70;;;;;;5029568;28;20448;-41
2021/04/05 07:56:06;;;;;;;4.50;3.60;;;15.80;34.50;;;;;;5030464;28;20446;-41
2021/04/05 07:58:48;;;;;;;7.40;4.07;;;16.00;34.30;;;;;;5026063;28;20444;-41
2021/04/05 08:01:30;;;;;;;6.10;4.50;;;16.30;33.90;;;;;;5008651;28;20428;-41
2021/04/05 08:04:15;;;;;;;7.90;4.50;;;16.60;33.50;;;;;;5026454;28;20443;-41
2021/04/05 08:06:57;;;;;;;8.77;4.53;;;16.50;33.00;;;;;;5012715;28;20489;-41
2021/04/05 08:09:44;;;;;;;5.07;3.70;;;16.50;33.50;;;;;;5028920;28;20844;-41
2021/04/05 08:12:33;;;;;;;5.80;4.23;;;16.70;33.30;;;;;;5029109;28;20456;-41
2021/04/05 08:15:20;;;;;;;7.93;4.77;;;16.70;32.90;;;;;;5027244;28;20486;-41
2021/04/05 08:18:11;;;;;;;6.63;4.50;;;16.60;32.50;;;;;;5029633;28;20876;-41
2021/04/05 08:21:08;;;;;;;6.77;4.00;;;16.70;32.60;;;;;;5027439;28;20935;-41
2021/04/05 08:23:55;;;;;;;8.10;4.10;;;16.80;33.00;;;;;;5028519;28;20454;-41
2021/04/05 08:26:41;;;;;;;8.63;4.60;;;17.00;33.20;;;;;;5022601;28;20715;-41
2021/04/05 08:29:28;;;;;;;8.27;4.30;;;17.10;32.60;;;;;;5022892;28;20554;-42
2021/04/05 08:32:18;;;;;;;6.77;4.60;;;17.20;32.70;;;;;;5026417;28;20443;-41
2021/04/05 08:35:02;;;;;;;7.57;4.30;;;17.50;32.80;;;;;;5029642;28;20879;-41
2021/04/05 08:37:37;;;;;;;5.53;3.90;;;17.50;32.30;;;;;;5019112;28;20974;-42
2021/04/05 08:40:41;;;;;;;6.77;4.27;;;17.50;32.40;;;;;;5024740;28;20447;-41
2021/04/05 08:43:23;;;;;;;7.43;4.83;;;17.30;32.50;;;;;;5016216;28;20804;-41
2021/04/05 08:45:50;;;;;;;5.03;4.13;;;17.40;32.90;;;;;;5028922;28;20444;-41
2021/04/05 08:48:21;;;;;;;8.97;5.23;;;17.60;32.70;;;;;;5027986;28;20432;-42
2021/04/05 08:50:54;;;;;;;5.37;3.87;;;17.70;32.50;;;;;;5027290;28;20563;-43
2021/04/05 08:53:22;;;;;;;5.03;4.20;;;17.90;33.10;;;;;;5014876;28;20548;-42
2021/04/05 08:55:49;;;;;;;7.20;5.20;;;18.00;32.70;;;;;;5031384;28;20497;-41
2021/04/05 08:58:52;;;;;;;7.57;4.23;;;18.20;32.60;;;;;;5031038;28;20435;-41
2021/04/05 09:01:24;;;;;;;3.60;3.30;;;18.30;32.00;;;;;;5031116;28;20522;-42
2021/04/05 09:03:50;;;;;;;7.03;4.70;;;18.50;32.50;;;;;;5030977;28;20440;-42
2021/04/05 09:06:25;;;;;;;6.07;4.33;;;18.70;32.50;;;;;;5030959;28;20931;-41
2021/04/05 09:08:51;;;;;;;5.70;4.40;;;18.60;31.80;;;;;;5025549;28;20946;-42
2021/04/05 09:11:19;;;;;;;6.53;4.13;;;18.50;32.10;;;;;;5029103;28;20446;-41
2021/04/05 09:13:50;;;;;;;5.20;4.10;;;18.60;32.30;;;;;;5019181;28;20436;-41
2021/04/05 09:16:36;;;;;;;10.87;3.33;;;18.50;32.10;;;;;;5028392;28;20460;-41
2021/04/05 09:19:20;;;;;;;4.70;3.17;;;17.90;31.10;;;;;;5028262;28;20451;-41
2021/04/05 09:22:16;;;;;;;4.47;3.43;;;17.60;30.50;;;;;;5029172;28;20451;-42
2021/04/05 09:25:12;;;;;;;8.37;3.43;;;17.00;30.60;;;;;;5031148;28;20964;-41
2021/04/05 09:27:57;;;;;;;6.17;2.77;;;16.90;31.60;;;;;;5031203;28;20447;-41
2021/04/05 09:31:03;;;;;;;5.43;3.30;;;17.20;31.60;;;;;;5024217;28;20491;-42
2021/04/05 09:33:44;;;;;;;8.27;3.60;;;16.90;30.00;;;;;;5028284;28;20529;-41
2021/04/05 09:36:24;;;;;;;3.73;3.23;;;16.40;29.60;;;;;;5020118;28;20458;-41
2021/04/05 09:39:15;;;;;;;6.20;2.90;;;16.50;30.00;;;;;;5019584;28;20488;-41
2021/04/05 09:42:04;;;;;;;5.10;3.00;;;16.30;30.00;;;;;;5030041;28;20459;-42
2021/04/05 09:44:55;;;;;;;10.80;3.10;;;16.40;30.20;;;;;;5031682;28;20494;-41
2021/04/05 09:47:43;;;;;;;3.07;2.40;;;16.40;30.20;;;;;;5031411;28;20447;-42
2021/04/05 09:50:19;;;;;;;5.33;2.80;;;16.30;30.10;;;;;;5014745;28;20499;-42
2021/04/05 09:53:22;;;;;;;4.83;3.03;;;16.50;30.40;;;;;;5023076;28;20436;-41
2021/04/05 09:55:59;;;;;;;8.13;2.73;;;16.30;31.20;;;;;;5030128;28;20432;-41
2021/04/05 09:58:34;;;;;;;9.30;3.07;;;16.20;31.50;;;;;;5013785;28;20795;-42
2021/04/05 10:01:07;;;;;;;7.70;3.70;;;16.30;31.20;;;;;;5022624;28;20449;-41
2021/04/05 10:03:44;;;;;;;5.47;2.80;;;16.50;31.20;;;;;;5028369;28;20515;-41
2021/04/05 10:06:17;;;;;;;3.53;2.60;;;16.20;30.10;;;;;;5030897;28;20459;-41
2021/04/05 10:08:44;;;;;;;6.07;2.63;;;16.00;30.00;;;;;;5031502;28;20482;-41
2021/04/05 10:11:11;;;;;;;8.53;2.77;;;16.00;30.30;;;;;;5029036;28;20857;-41
2021/04/05 10:13:44;;;;;;;4.40;2.80;;;15.80;30.10;;;;;;5030386;28;20447;-42
2021/04/05 10:16:10;;;;;;;6.50;2.63;;;16.00;31.10;;;;;;5019175;28;20444;-41
2021/04/05 10:18:37;;;;;;;12.00;2.90;;;16.40;30.60;;;;;;5022443;28;20464;-41
2021/04/05 10:21:05;;;;;;;5.67;2.83;;;16.70;30.00;;;;;;5024501;28;20436;-42
2021/04/05 10:23:32;;;;;;;5.10;3.10;;;16.60;29.50;;;;;;5030818;28;20443;-42
2021/04/05 10:26:00;;;;;;;5.07;2.87;;;16.80;29.70;;;;;;5025493;28;20483;-41
2021/04/05 10:28:30;;;;;;;5.83;2.60;;;16.80;29.30;;;;;;5026038;28;20951;-42
2021/04/05 10:30:58;;;;;;;7.40;3.30;;;16.80;29.20;;;;;;5014697;28;20856;-42
2021/04/05 10:33:49;;;;;;;5.70;3.63;;;16.50;28.60;;;;;;5024654;28;20470;-43
2021/04/05 10:36:22;;;;;;;6.63;3.50;;;16.20;28.20;;;;;;5030322;28;21242;-42
2021/04/05 10:38:49;;;;;;;5.20;2.67;;;16.20;27.90;;;;;;5030086;28;20447;-43
2021/04/05 10:41:19;;;;;;;6.80;2.93;;;16.10;27.70;;;;;;5022185;28;20425;-43
2021/04/05 10:43:50;;;;;;;9.40;2.80;;;16.20;28.00;;;;;;5027316;28;20471;-43
2021/04/05 10:46:25;;;;;;;6.40;3.00;;;16.20;27.70;;;;;;5030430;28;20810;-43
2021/04/05 10:49:02;;;;;;;8.20;2.70;;;16.30;27.80;;;;;;5025772;28;20431;-42
2021/04/05 10:51:39;;;;;;;5.00;2.40;;;16.50;27.30;;;;;;5030412;28;20432;-42
2021/04/05 10:54:19;;;;;;;8.73;3.50;;;16.40;27.40;;;;;;5024893;28;20435;-43
2021/04/05 10:56:52;;;;;;;5.43;3.50;;;16.70;27.70;;;;;;5027755;28;20437;-43
2021/04/05 10:59:25;;;;;;;8.37;2.80;;;16.80;27.50;;;;;;5030606;28;20448;-42
2021/04/05 11:01:56;;;;;;;4.60;2.90;;;16.60;27.40;;;;;;5029302;28;20486;-42
2021/04/05 11:04:24;;;;;;;4.90;3.13;;;16.60;27.40;;;;;;5021988;28;20448;-42
2021/04/05 11:06:51;;;;;;;7.97;2.83;;;16.60;27.40;;;;;;5026265;28;20459;-43
2021/04/05 11:09:19;;;;;;;5.37;2.80;;;16.30;27.70;;;;;;5030975;28;20486;-42
2021/04/05 11:11:51;;;;;;;6.93;2.63;;;16.40;28.00;;;;;;5029181;28;20431;-42
2021/04/05 11:14:20;;;;;;;3.80;2.77;;;16.60;28.00;;;;;;5024013;28;20464;-42
2021/04/05 11:16:55;;;;;;;8.00;2.97;;;16.40;27.90;;;;;;5028337;28;20443;-42
2021/04/05 11:19:48;;;;;;;7.20;2.90;;;16.30;28.00;;;;;;5029875;28;20518;-42
2021/04/05 11:22:17;;;;;;;7.77;4.40;;;16.30;28.50;;;;;;5023924;28;20443;-42
2021/04/05 11:24:44;;;;;;;9.90;4.07;;;15.90;29.50;;;;;;5025055;28;20472;-42
2021/04/05 11:27:14;;;;;;;8.80;3.70;;;16.00;31.00;;;;;;5017799;28;20437;-43
2021/04/05 11:29:46;;;;;;;13.07;4.23;;;16.10;31.90;;;;;;5017579;28;20512;-42
2021/04/05 11:32:16;;;;;;;7.07;4.03;;;16.20;32.10;;;;;;5013805;28;20432;-43
2021/04/05 11:34:43;;;;;;;7.97;6.00;;;16.20;32.50;;;;;;5023876;28;20439;-42
2021/04/05 11:37:15;;;;;;;11.03;5.97;;;16.30;34.20;;;;;;5020970;28;21052;-41
2021/04/05 11:39:45;;;;;;;10.20;5.57;;;16.30;35.10;;;;;;5021555;28;20443;-41
2021/04/05 11:42:12;;;;;;;9.50;5.80;;;16.30;35.30;;;;;;5026693;28;20868;-41
2021/04/05 11:44:51;;;;;;;14.87;6.30;;;16.30;35.30;;;;;;5024244;28;20435;-41
2021/04/05 11:47:19;;;;;;;10.50;5.27;;;16.30;35.60;;;;;;5027008;28;20517;-41
2021/04/05 11:49:45;;;;;;;10.80;6.00;;;16.20;35.50;;;;;;5026670;28;20495;-41
2021/04/05 11:52:22;;;;;;;12.43;5.83;;;16.00;34.80;;;;;;5026636;28;20432;-41
2021/04/05 11:54:54;;;;;;;10.67;6.60;;;15.90;35.00;;;;;;5023797;28;20498;-41
2021/04/05 11:57:32;;;;;;;11.00;5.90;;;16.10;34.90;;;;;;5022938;28;20448;-41
2021/04/05 12:00:11;;;;;;;9.00;5.90;;;15.70;34.70;;;;;;5026738;28;20812;-41
2021/04/05 12:03:04;;;;;;;10.67;6.03;;;15.80;35.40;;;;;;5018468;28;20522;-42
2021/04/05 12:05:56;;;;;;;10.30;6.60;;;15.90;35.00;;;;;;5025002;28;20463;-41
2021/04/05 12:08:26;;;;;;;10.33;6.23;;;15.90;35.10;;;;;;5021498;28;20448;-41
2021/04/05 12:11:00;;;;;;;8.40;6.40;;;16.00;35.70;;;;;;5027472;28;20500;-42
2021/04/05 12:13:43;;;;;;;14.77;6.63;;;15.90;35.30;;;;;;5022845;28;20448;-41
2021/04/05 12:16:10;;;;;;;17.70;7.57;;;15.80;35.80;;;;;;5028454;28;20435;-41
2021/04/05 12:18:37;;;;;;;11.23;7.90;;;15.70;36.80;;;;;;5033526;28;20467;-42
2021/04/05 12:21:14;;;;;;;13.73;7.73;;;15.60;37.50;;;;;;5029643;28;20482;-42
2021/04/05 12:23:42;;;;;;;14.13;7.37;;;15.70;38.10;;;;;;5030092;28;20950;-41
2021/04/05 12:26:09;;;;;;;14.90;8.10;;;15.90;38.40;;;;;;5032591;28;20432;-41
2021/04/05 12:28:40;;;;;;;15.00;7.10;;;16.00;38.60;;;;;;5032960;28;20436;-41
2021/04/05 12:31:08;;;;;;;14.10;7.90;;;15.90;38.60;;;;;;5021451;28;20487;-42
2021/04/05 12:33:35;;;;;;;15.10;8.63;;;15.80;39.30;;;;;;5022451;28;20855;-41
2021/04/05 12:36:03;;;;;;;16.10;9.40;;;15.50;39.30;;;;;;5022165;28;21124;-41
2021/04/05 12:38:36;;;;;;;14.23;8.10;;;15.50;39.80;;;;;;5030147;28;20440;-41
2021/04/05 12:41:04;;;;;;;16.17;8.60;;;15.30;39.90;;;;;;5018505;28;20527;-42
2021/04/05 12:43:34;;;;;;;16.57;8.40;;;15.20;40.10;;;;;;5026980;28;20435;-40
2021/04/05 12:46:02;;;;;;;16.03;8.53;;;15.00;40.10;;;;;;5019283;28;20439;-41
2021/04/05 12:48:30;;;;;;;15.37;8.87;;;15.00;40.60;;;;;;5019563;28;20424;-41
2021/04/05 12:51:06;;;;;;;15.00;9.30;;;14.90;40.40;;;;;;5026633;28;20495;-40
2021/04/05 12:53:35;;;;;;;16.30;10.30;;;15.00;40.80;;;;;;5031516;28;20443;-41
2021/04/05 12:56:03;;;;;;;12.90;8.90;;;14.90;40.90;;;;;;5032103;28;20443;-42
2021/04/05 12:58:34;;;;;;;16.00;8.70;;;14.90;40.90;;;;;;5028903;28;20928;-41
2021/04/05 13:01:00;;;;;;;23.60;8.70;;;14.80;40.90;;;;;;5025544;28;20556;-41
2021/04/05 13:03:35;;;;;;;16.10;9.63;;;14.90;40.90;;;;;;5021997;28;20463;-41
2021/04/05 13:06:07;;;;;;;15.93;9.50;;;15.00;40.90;;;;;;5028330;28;20562;-41
2021/04/05 13:08:53;;;;;;;19.97;9.83;;;15.00;40.90;;;;;;5028880;28;20803;-42
2021/04/05 13:11:26;;;;;;;18.73;9.27;;;15.00;40.80;;;;;;5020842;28;20464;-41
2021/04/05 13:14:02;;;;;;;14.80;8.57;;;15.00;40.60;;;;;;5028410;28;20483;-40
2021/04/05 13:16:52;;;;;;;13.57;9.50;;;14.70;40.60;;;;;;5026391;28;20449;-40
2021/04/05 13:19:22;;;;;;;15.57;9.17;;;14.60;40.80;;;;;;5025435;28;20444;-40
2021/04/05 13:21:48;;;;;;;13.90;8.00;;;14.60;40.90;;;;;;5022281;28;20436;-40
2021/04/05 13:24:31;;;;;;;11.50;8.30;;;14.50;40.80;;;;;;5027725;28;20927;-40
2021/04/05 13:27:03;;;;;;;11.87;8.27;;;14.30;40.90;;;;;;5029536;28;20447;-40
2021/04/05 13:29:32;;;;;;;17.60;9.73;;;14.00;41.20;;;;;;5023731;28;20511;-40